sensor_id;sensor_type;location;lat;lon;timestamp;P1;durP1;ratioP1;P2;durP2;ratioP2
15285;SDS011;7744;52.172;10.668;2023-04-24T00:02:12;1.48;;;1.30;;
15285;SDS011;7744;52.172;10.668;2023-04-24T00:04:38;1.20;;;1.00;;
15285;SDS011;7744;52.172;10.668;2023-04-24T00:07:09;1.30;;;1.20;;
15285;SDS011;7744;52.172;10.668;2023-04-24T00:09:38;1.42;;;1.10;;
15285;SDS011;7744;52.172;10.668;2023-04-24T00:12:03;1.73;;;1.20;;
15285;SDS011;7744;52.172;10.668;2023-04-24T00:14:30;1.55;;;1.15;;
15285;SDS011;7744;52.172;10.668;2023-04-24T00:16:56;1.10;;;1.05;;
15285;SDS011;7744;52.172;10.668;2023-04-24T00:19:29;2.72;;;1.23;;
15285;SDS011;7744;52.172;10.668;2023-04-24T00:21:55;1.48;;;1.10;;
15285;SDS011;7744;52.172;10.668;2023-04-24T00:24:20;1.35;;;1.00;;
15285;SDS011;7744;52.172;10.668;2023-04-24T00:26:46;1.73;;;1.08;;
15285;SDS011;7744;52.172;10.668;2023-04-24T00:29:12;1.20;;;1.10;;
15285;SDS011;7744;52.172;10.668;2023-04-24T00:31:37;1.10;;;1.00;;
15285;SDS011;7744;52.172;10.668;2023-04-24T00:34:03;1.30;;;1.20;;
15285;SDS011;7744;52.172;10.668;2023-04-24T00:36:30;1.45;;;1.35;;
15285;SDS011;7744;52.172;10.668;2023-04-24T00:38:57;1.25;;;1.13;;
15285;SDS011;7744;52.172;10.668;2023-04-24T00:41:22;1.27;;;1.17;;
15285;SDS011;7744;52.172;10.668;2023-04-24T00:43:49;2.13;;;1.15;;
15285;SDS011;7744;52.172;10.668;2023-04-24T00:46:15;1.02;;;1.00;;
15285;SDS011;7744;52.172;10.668;2023-04-24T00:48:41;1.00;;;0.90;;
15285;SDS011;7744;52.172;10.668;2023-04-24T00:51:08;1.55;;;1.20;;
15285;SDS011;7744;52.172;10.668;2023-04-24T00:53:34;2.17;;;1.10;;
15285;SDS011;7744;52.172;10.668;2023-04-24T00:56:00;1.23;;;0.90;;
15285;SDS011;7744;52.172;10.668;2023-04-24T00:58:26;1.57;;;0.90;;
15285;SDS011;7744;52.172;10.668;2023-04-24T01:00:52;1.27;;;1.08;;
15285;SDS011;7744;52.172;10.668;2023-04-24T01:03:22;0.88;;;0.80;;
15285;SDS011;7744;52.172;10.668;2023-04-24T01:05:51;2.17;;;1.10;;
15285;SDS011;7744;52.172;10.668;2023-04-24T01:08:19;1.10;;;1.02;;
15285;SDS011;7744;52.172;10.668;2023-04-24T01:10:45;1.83;;;0.90;;
15285;SDS011;7744;52.172;10.668;2023-04-24T01:13:12;2.20;;;0.90;;
15285;SDS011;7744;52.172;10.668;2023-04-24T01:15:38;2.23;;;0.93;;
15285;SDS011;7744;52.172;10.668;2023-04-24T01:18:04;0.80;;;0.80;;
15285;SDS011;7744;52.172;10.668;2023-04-24T01:20:30;1.20;;;1.02;;
15285;SDS011;7744;52.172;10.668;2023-04-24T01:23:04;1.07;;;1.00;;
15285;SDS011;7744;52.172;10.668;2023-04-24T01:25:31;2.50;;;1.10;;
15285;SDS011;7744;52.172;10.668;2023-04-24T01:27:57;3.27;;;1.17;;
15285;SDS011;7744;52.172;10.668;2023-04-24T01:30:24;1.33;;;0.97;;
15285;SDS011;7744;52.172;10.668;2023-04-24T01:32:50;0.90;;;0.90;;
15285;SDS011;7744;52.172;10.668;2023-04-24T01:35:16;1.85;;;1.08;;
15285;SDS011;7744;52.172;10.668;2023-04-24T01:37:42;1.30;;;0.80;;
15285;SDS011;7744;52.172;10.668;2023-04-24T01:40:08;1.43;;;0.80;;
15285;SDS011;7744;52.172;10.668;2023-04-24T01:42:34;0.82;;;0.80;;
15285;SDS011;7744;52.172;10.668;2023-04-24T01:45:00;1.27;;;0.80;;
15285;SDS011;7744;52.172;10.668;2023-04-24T01:47:28;2.90;;;1.35;;
15285;SDS011;7744;52.172;10.668;2023-04-24T01:49:55;1.07;;;0.97;;
15285;SDS011;7744;52.172;10.668;2023-04-24T01:52:21;1.20;;;1.10;;
15285;SDS011;7744;52.172;10.668;2023-04-24T01:54:46;0.90;;;0.90;;
15285;SDS011;7744;52.172;10.668;2023-04-24T01:57:13;1.80;;;1.00;;
15285;SDS011;7744;52.172;10.668;2023-04-24T01:59:39;1.67;;;1.10;;
15285;SDS011;7744;52.172;10.668;2023-04-24T02:02:05;1.10;;;1.00;;
15285;SDS011;7744;52.172;10.668;2023-04-24T02:04:31;1.00;;;0.90;;
15285;SDS011;7744;52.172;10.668;2023-04-24T02:06:56;1.80;;;1.00;;
15285;SDS011;7744;52.172;10.668;2023-04-24T02:09:22;2.23;;;1.20;;
15285;SDS011;7744;52.172;10.668;2023-04-24T02:11:48;1.13;;;1.07;;
15285;SDS011;7744;52.172;10.668;2023-04-24T02:14:13;1.73;;;1.10;;
15285;SDS011;7744;52.172;10.668;2023-04-24T02:16:39;1.77;;;1.00;;
15285;SDS011;7744;52.172;10.668;2023-04-24T02:19:05;2.30;;;1.00;;
15285;SDS011;7744;52.172;10.668;2023-04-24T02:21:30;1.63;;;1.10;;
15285;SDS011;7744;52.172;10.668;2023-04-24T02:23:56;1.13;;;0.80;;
15285;SDS011;7744;52.172;10.668;2023-04-24T02:26:22;1.60;;;0.87;;
15285;SDS011;7744;52.172;10.668;2023-04-24T02:28:48;1.53;;;0.90;;
15285;SDS011;7744;52.172;10.668;2023-04-24T02:31:13;2.03;;;0.93;;
15285;SDS011;7744;52.172;10.668;2023-04-24T02:33:39;0.93;;;0.90;;
15285;SDS011;7744;52.172;10.668;2023-04-24T02:36:05;1.03;;;0.70;;
15285;SDS011;7744;52.172;10.668;2023-04-24T02:38:30;2.00;;;1.10;;
15285;SDS011;7744;52.172;10.668;2023-04-24T02:40:56;1.97;;;1.00;;
15285;SDS011;7744;52.172;10.668;2023-04-24T02:43:22;1.00;;;0.90;;
15285;SDS011;7744;52.172;10.668;2023-04-24T02:45:47;0.70;;;0.70;;
15285;SDS011;7744;52.172;10.668;2023-04-24T02:48:13;1.00;;;0.90;;
15285;SDS011;7744;52.172;10.668;2023-04-24T02:50:39;1.50;;;0.83;;
15285;SDS011;7744;52.172;10.668;2023-04-24T02:53:05;1.40;;;1.00;;
15285;SDS011;7744;52.172;10.668;2023-04-24T02:55:31;2.47;;;0.80;;
15285;SDS011;7744;52.172;10.668;2023-04-24T02:57:56;1.63;;;0.90;;
15285;SDS011;7744;52.172;10.668;2023-04-24T03:00:22;0.90;;;0.90;;
15285;SDS011;7744;52.172;10.668;2023-04-24T03:02:47;3.27;;;1.00;;
15285;SDS011;7744;52.172;10.668;2023-04-24T03:05:14;0.70;;;0.70;;
15285;SDS011;7744;52.172;10.668;2023-04-24T03:07:40;1.27;;;0.90;;
15285;SDS011;7744;52.172;10.668;2023-04-24T03:10:06;0.80;;;0.80;;
15285;SDS011;7744;52.172;10.668;2023-04-24T03:12:32;1.90;;;0.80;;
15285;SDS011;7744;52.172;10.668;2023-04-24T03:14:57;1.93;;;0.80;;
15285;SDS011;7744;52.172;10.668;2023-04-24T03:17:23;1.33;;;0.60;;
15285;SDS011;7744;52.172;10.668;2023-04-24T03:19:49;1.23;;;0.90;;
15285;SDS011;7744;52.172;10.668;2023-04-24T03:22:15;0.70;;;0.70;;
15285;SDS011;7744;52.172;10.668;2023-04-24T03:24:40;0.80;;;0.80;;
15285;SDS011;7744;52.172;10.668;2023-04-24T03:27:06;2.33;;;0.73;;
15285;SDS011;7744;52.172;10.668;2023-04-24T03:29:33;1.03;;;0.80;;
15285;SDS011;7744;52.172;10.668;2023-04-24T03:31:59;1.53;;;0.50;;
15285;SDS011;7744;52.172;10.668;2023-04-24T03:34:24;0.90;;;0.70;;
15285;SDS011;7744;52.172;10.668;2023-04-24T03:36:50;1.17;;;0.60;;
15285;SDS011;7744;52.172;10.668;2023-04-24T03:39:16;1.73;;;0.60;;
15285;SDS011;7744;52.172;10.668;2023-04-24T03:41:41;0.70;;;0.70;;
15285;SDS011;7744;52.172;10.668;2023-04-24T03:44:07;0.60;;;0.60;;
15285;SDS011;7744;52.172;10.668;2023-04-24T03:46:32;0.67;;;0.67;;
15285;SDS011;7744;52.172;10.668;2023-04-24T03:48:58;0.60;;;0.60;;
15285;SDS011;7744;52.172;10.668;2023-04-24T03:51:23;1.10;;;0.70;;
15285;SDS011;7744;52.172;10.668;2023-04-24T03:53:49;1.00;;;0.70;;
15285;SDS011;7744;52.172;10.668;2023-04-24T03:56:14;0.70;;;0.60;;
15285;SDS011;7744;52.172;10.668;2023-04-24T03:58:40;1.17;;;0.70;;
15285;SDS011;7744;52.172;10.668;2023-04-24T04:01:06;0.63;;;0.60;;
15285;SDS011;7744;52.172;10.668;2023-04-24T04:03:32;1.27;;;0.60;;
15285;SDS011;7744;52.172;10.668;2023-04-24T04:05:58;1.00;;;0.70;;
15285;SDS011;7744;52.172;10.668;2023-04-24T04:08:23;1.13;;;0.87;;
15285;SDS011;7744;52.172;10.668;2023-04-24T04:10:49;0.80;;;0.60;;
15285;SDS011;7744;52.172;10.668;2023-04-24T04:13:14;0.90;;;0.63;;
15285;SDS011;7744;52.172;10.668;2023-04-24T04:15:40;0.60;;;0.60;;
15285;SDS011;7744;52.172;10.668;2023-04-24T04:18:06;0.90;;;0.80;;
15285;SDS011;7744;52.172;10.668;2023-04-24T04:20:31;0.57;;;0.57;;
15285;SDS011;7744;52.172;10.668;2023-04-24T04:22:57;1.57;;;0.60;;
15285;SDS011;7744;52.172;10.668;2023-04-24T04:25:22;1.60;;;0.70;;
15285;SDS011;7744;52.172;10.668;2023-04-24T04:27:48;0.83;;;0.80;;
15285;SDS011;7744;52.172;10.668;2023-04-24T04:30:14;1.10;;;0.70;;
15285;SDS011;7744;52.172;10.668;2023-04-24T04:32:39;1.33;;;0.60;;
15285;SDS011;7744;52.172;10.668;2023-04-24T04:35:05;2.33;;;0.70;;
15285;SDS011;7744;52.172;10.668;2023-04-24T04:37:31;1.80;;;0.60;;
15285;SDS011;7744;52.172;10.668;2023-04-24T04:40:00;0.60;;;0.60;;
15285;SDS011;7744;52.172;10.668;2023-04-24T04:42:31;1.83;;;0.80;;
15285;SDS011;7744;52.172;10.668;2023-04-24T04:44:59;1.27;;;0.70;;
15285;SDS011;7744;52.172;10.668;2023-04-24T04:47:25;1.90;;;0.70;;
15285;SDS011;7744;52.172;10.668;2023-04-24T04:49:53;1.50;;;0.87;;
15285;SDS011;7744;52.172;10.668;2023-04-24T04:52:19;1.10;;;0.70;;
15285;SDS011;7744;52.172;10.668;2023-04-24T04:54:44;0.67;;;0.60;;
15285;SDS011;7744;52.172;10.668;2023-04-24T04:57:11;1.30;;;0.70;;
15285;SDS011;7744;52.172;10.668;2023-04-24T04:59:37;1.13;;;0.57;;
15285;SDS011;7744;52.172;10.668;2023-04-24T05:02:02;0.60;;;0.60;;
15285;SDS011;7744;52.172;10.668;2023-04-24T05:04:28;0.83;;;0.60;;
15285;SDS011;7744;52.172;10.668;2023-04-24T05:06:53;0.73;;;0.60;;
15285;SDS011;7744;52.172;10.668;2023-04-24T05:09:19;1.77;;;0.80;;
15285;SDS011;7744;52.172;10.668;2023-04-24T05:11:44;0.90;;;0.60;;
15285;SDS011;7744;52.172;10.668;2023-04-24T05:14:10;0.50;;;0.50;;
15285;SDS011;7744;52.172;10.668;2023-04-24T05:16:37;0.73;;;0.70;;
15285;SDS011;7744;52.172;10.668;2023-04-24T05:19:03;1.30;;;0.73;;
15285;SDS011;7744;52.172;10.668;2023-04-24T05:21:30;1.17;;;0.70;;
15285;SDS011;7744;52.172;10.668;2023-04-24T05:23:56;1.20;;;0.90;;
15285;SDS011;7744;52.172;10.668;2023-04-24T05:26:22;1.10;;;0.63;;
15285;SDS011;7744;52.172;10.668;2023-04-24T05:28:48;1.67;;;0.70;;
15285;SDS011;7744;52.172;10.668;2023-04-24T05:31:14;0.57;;;0.50;;
15285;SDS011;7744;52.172;10.668;2023-04-24T05:33:40;0.50;;;0.50;;
15285;SDS011;7744;52.172;10.668;2023-04-24T05:36:06;1.33;;;0.70;;
15285;SDS011;7744;52.172;10.668;2023-04-24T05:38:31;2.10;;;0.70;;
15285;SDS011;7744;52.172;10.668;2023-04-24T05:40:57;1.77;;;0.70;;
15285;SDS011;7744;52.172;10.668;2023-04-24T05:43:22;1.10;;;0.73;;
15285;SDS011;7744;52.172;10.668;2023-04-24T05:45:48;1.43;;;0.80;;
15285;SDS011;7744;52.172;10.668;2023-04-24T05:48:14;0.83;;;0.60;;
15285;SDS011;7744;52.172;10.668;2023-04-24T05:50:40;0.85;;;0.60;;
15285;SDS011;7744;52.172;10.668;2023-04-24T05:53:06;2.60;;;1.00;;
15285;SDS011;7744;52.172;10.668;2023-04-24T05:55:32;0.80;;;0.80;;
15285;SDS011;7744;52.172;10.668;2023-04-24T05:57:57;1.60;;;0.80;;
15285;SDS011;7744;52.172;10.668;2023-04-24T06:00:23;0.70;;;0.70;;
15285;SDS011;7744;52.172;10.668;2023-04-24T06:02:49;1.92;;;0.70;;
15285;SDS011;7744;52.172;10.668;2023-04-24T06:05:15;0.82;;;0.80;;
15285;SDS011;7744;52.172;10.668;2023-04-24T06:07:40;2.30;;;1.17;;
15285;SDS011;7744;52.172;10.668;2023-04-24T06:10:06;0.80;;;0.80;;
15285;SDS011;7744;52.172;10.668;2023-04-24T06:12:32;0.93;;;0.80;;
15285;SDS011;7744;52.172;10.668;2023-04-24T06:14:58;1.30;;;0.80;;
15285;SDS011;7744;52.172;10.668;2023-04-24T06:17:23;1.55;;;1.00;;
15285;SDS011;7744;52.172;10.668;2023-04-24T06:19:49;1.20;;;0.80;;
15285;SDS011;7744;52.172;10.668;2023-04-24T06:22:14;1.58;;;1.15;;
15285;SDS011;7744;52.172;10.668;2023-04-24T06:24:40;4.72;;;1.15;;
15285;SDS011;7744;52.172;10.668;2023-04-24T06:27:06;1.63;;;1.15;;
15285;SDS011;7744;52.172;10.668;2023-04-24T06:29:32;0.95;;;0.90;;
15285;SDS011;7744;52.172;10.668;2023-04-24T06:31:58;1.83;;;1.10;;
15285;SDS011;7744;52.172;10.668;2023-04-24T06:34:24;2.58;;;1.00;;
15285;SDS011;7744;52.172;10.668;2023-04-24T06:36:50;1.58;;;0.95;;
15285;SDS011;7744;52.172;10.668;2023-04-24T06:39:15;1.50;;;0.95;;
15285;SDS011;7744;52.172;10.668;2023-04-24T06:41:41;1.45;;;1.00;;
15285;SDS011;7744;52.172;10.668;2023-04-24T06:44:08;2.45;;;0.90;;
15285;SDS011;7744;52.172;10.668;2023-04-24T06:46:35;1.73;;;0.85;;
15285;SDS011;7744;52.172;10.668;2023-04-24T06:49:10;0.90;;;0.90;;
15285;SDS011;7744;52.172;10.668;2023-04-24T06:51:35;1.60;;;0.93;;
15285;SDS011;7744;52.172;10.668;2023-04-24T06:54:01;2.35;;;1.05;;
15285;SDS011;7744;52.172;10.668;2023-04-24T06:56:27;2.55;;;1.00;;
15285;SDS011;7744;52.172;10.668;2023-04-24T06:58:54;1.48;;;1.00;;
15285;SDS011;7744;52.172;10.668;2023-04-24T07:01:19;1.55;;;0.90;;
15285;SDS011;7744;52.172;10.668;2023-04-24T07:03:45;1.10;;;0.85;;
15285;SDS011;7744;52.172;10.668;2023-04-24T07:06:21;1.83;;;0.70;;
15285;SDS011;7744;52.172;10.668;2023-04-24T07:08:48;1.10;;;0.85;;
15285;SDS011;7744;52.172;10.668;2023-04-24T07:11:14;4.05;;;1.40;;
15285;SDS011;7744;52.172;10.668;2023-04-24T07:13:39;1.02;;;0.60;;
15285;SDS011;7744;52.172;10.668;2023-04-24T07:16:06;6.18;;;0.98;;
15285;SDS011;7744;52.172;10.668;2023-04-24T07:18:33;0.57;;;0.50;;
15285;SDS011;7744;52.172;10.668;2023-04-24T07:21:16;1.55;;;0.60;;
15285;SDS011;7744;52.172;10.668;2023-04-24T07:23:42;1.08;;;0.70;;
15285;SDS011;7744;52.172;10.668;2023-04-24T07:26:07;1.40;;;0.70;;
15285;SDS011;7744;52.172;10.668;2023-04-24T07:28:46;1.33;;;0.75;;
15285;SDS011;7744;52.172;10.668;2023-04-24T07:31:16;1.13;;;0.57;;
15285;SDS011;7744;52.172;10.668;2023-04-24T07:33:42;0.98;;;0.70;;
15285;SDS011;7744;52.172;10.668;2023-04-24T07:36:08;1.25;;;0.85;;
15285;SDS011;7744;52.172;10.668;2023-04-24T07:38:40;0.65;;;0.40;;
15285;SDS011;7744;52.172;10.668;2023-04-24T07:41:06;1.05;;;0.50;;
15285;SDS011;7744;52.172;10.668;2023-04-24T07:43:32;0.60;;;0.60;;
15285;SDS011;7744;52.172;10.668;2023-04-24T07:45:57;0.75;;;0.70;;
15285;SDS011;7744;52.172;10.668;2023-04-24T07:48:25;1.98;;;1.25;;
15285;SDS011;7744;52.172;10.668;2023-04-24T07:50:51;2.05;;;1.00;;
15285;SDS011;7744;52.172;10.668;2023-04-24T07:53:17;1.05;;;0.82;;
15285;SDS011;7744;52.172;10.668;2023-04-24T07:58:34;1.23;;;1.20;;
15285;SDS011;7744;52.172;10.668;2023-04-24T08:01:00;2.60;;;1.67;;
15285;SDS011;7744;52.172;10.668;2023-04-24T08:03:27;1.63;;;1.13;;
15285;SDS011;7744;52.172;10.668;2023-04-24T08:05:53;1.63;;;1.30;;
15285;SDS011;7744;52.172;10.668;2023-04-24T08:08:21;1.42;;;1.13;;
15285;SDS011;7744;52.172;10.668;2023-04-24T08:11:07;1.23;;;1.10;;
15285;SDS011;7744;52.172;10.668;2023-04-24T08:13:36;1.70;;;1.30;;
15285;SDS011;7744;52.172;10.668;2023-04-24T08:16:11;1.48;;;1.38;;
15285;SDS011;7744;52.172;10.668;2023-04-24T08:22:31;1.40;;;1.30;;
15285;SDS011;7744;52.172;10.668;2023-04-24T08:25:06;1.63;;;1.50;;
15285;SDS011;7744;52.172;10.668;2023-04-24T08:27:32;1.73;;;1.63;;
15285;SDS011;7744;52.172;10.668;2023-04-24T08:29:58;1.50;;;1.40;;
15285;SDS011;7744;52.172;10.668;2023-04-24T08:32:24;1.88;;;1.67;;
15285;SDS011;7744;52.172;10.668;2023-04-24T08:34:53;1.77;;;1.52;;
15285;SDS011;7744;52.172;10.668;2023-04-24T08:37:21;2.33;;;2.13;;
15285;SDS011;7744;52.172;10.668;2023-04-24T08:39:47;2.00;;;1.90;;
15285;SDS011;7744;52.172;10.668;2023-04-24T08:42:14;2.03;;;1.85;;
15285;SDS011;7744;52.172;10.668;2023-04-24T08:44:41;2.13;;;1.60;;
15285;SDS011;7744;52.172;10.668;2023-04-24T08:47:07;1.90;;;1.80;;
15285;SDS011;7744;52.172;10.668;2023-04-24T08:49:35;1.95;;;1.85;;
15285;SDS011;7744;52.172;10.668;2023-04-24T08:52:02;4.22;;;1.90;;
15285;SDS011;7744;52.172;10.668;2023-04-24T08:54:29;2.05;;;1.95;;
15285;SDS011;7744;52.172;10.668;2023-04-24T08:56:58;2.65;;;2.10;;
15285;SDS011;7744;52.172;10.668;2023-04-24T08:59:31;2.88;;;1.85;;
15285;SDS011;7744;52.172;10.668;2023-04-24T11:45:18;1.30;;;1.20;;
15285;SDS011;7744;52.172;10.668;2023-04-24T11:47:53;1.42;;;0.95;;
15285;SDS011;7744;52.172;10.668;2023-04-24T11:50:20;1.17;;;0.90;;
15285;SDS011;7744;52.172;10.668;2023-04-24T11:52:48;1.23;;;1.05;;
15285;SDS011;7744;52.172;10.668;2023-04-24T11:57:50;1.30;;;1.20;;
15285;SDS011;7744;52.172;10.668;2023-04-24T12:00:19;1.40;;;1.00;;
15285;SDS011;7744;52.172;10.668;2023-04-24T12:03:16;1.20;;;1.10;;
15285;SDS011;7744;52.172;10.668;2023-04-24T12:05:41;6.78;;;2.30;;
15285;SDS011;7744;52.172;10.668;2023-04-24T12:08:08;7.38;;;1.85;;
15285;SDS011;7744;52.172;10.668;2023-04-24T12:10:39;8.02;;;1.70;;
15285;SDS011;7744;52.172;10.668;2023-04-24T12:13:05;8.75;;;1.98;;
15285;SDS011;7744;52.172;10.668;2023-04-24T12:15:39;3.13;;;1.83;;
15285;SDS011;7744;52.172;10.668;2023-04-24T12:18:08;3.78;;;1.60;;
15285;SDS011;7744;52.172;10.668;2023-04-24T12:20:37;7.07;;;1.65;;
15285;SDS011;7744;52.172;10.668;2023-04-24T12:23:04;11.88;;;2.47;;
15285;SDS011;7744;52.172;10.668;2023-04-24T12:25:31;15.38;;;3.78;;
15285;SDS011;7744;52.172;10.668;2023-04-24T12:28:13;17.48;;;2.30;;
15285;SDS011;7744;52.172;10.668;2023-04-24T12:30:48;11.65;;;1.75;;
15285;SDS011;7744;52.172;10.668;2023-04-24T12:33:35;3.65;;;1.77;;
15285;SDS011;7744;52.172;10.668;2023-04-24T12:39:20;2.78;;;1.30;;
15285;SDS011;7744;52.172;10.668;2023-04-24T12:42:28;1.58;;;1.10;;
15285;SDS011;7744;52.172;10.668;2023-04-24T12:45:05;1.77;;;1.27;;
15285;SDS011;7744;52.172;10.668;2023-04-24T12:47:32;1.55;;;1.40;;
15285;SDS011;7744;52.172;10.668;2023-04-24T12:53:07;1.52;;;1.30;;
15285;SDS011;7744;52.172;10.668;2023-04-24T12:55:39;1.92;;;1.30;;
15285;SDS011;7744;52.172;10.668;2023-04-24T12:58:20;5.32;;;1.70;;
15285;SDS011;7744;52.172;10.668;2023-04-24T13:00:46;18.77;;;3.22;;
15285;SDS011;7744;52.172;10.668;2023-04-24T13:03:16;16.42;;;2.13;;
15285;SDS011;7744;52.172;10.668;2023-04-24T13:05:43;9.68;;;1.70;;
15285;SDS011;7744;52.172;10.668;2023-04-24T13:08:12;3.65;;;1.00;;
15285;SDS011;7744;52.172;10.668;2023-04-24T13:10:43;3.00;;;1.00;;
15285;SDS011;7744;52.172;10.668;2023-04-24T13:13:17;6.07;;;1.20;;
15285;SDS011;7744;52.172;10.668;2023-04-24T13:16:26;4.53;;;1.35;;
15285;SDS011;7744;52.172;10.668;2023-04-24T13:19:27;11.77;;;1.33;;
15285;SDS011;7744;52.172;10.668;2023-04-24T13:22:08;3.70;;;0.98;;
15285;SDS011;7744;52.172;10.668;2023-04-24T13:24:48;2.83;;;0.60;;
15285;SDS011;7744;52.172;10.668;2023-04-24T13:27:14;0.30;;;0.30;;
15285;SDS011;7744;52.172;10.668;2023-04-24T13:29:43;0.60;;;0.60;;
15285;SDS011;7744;52.172;10.668;2023-04-24T13:32:12;1.30;;;0.40;;
15285;SDS011;7744;52.172;10.668;2023-04-24T13:34:37;0.93;;;0.40;;
15285;SDS011;7744;52.172;10.668;2023-04-24T13:37:03;2.33;;;0.73;;
15285;SDS011;7744;52.172;10.668;2023-04-24T13:39:30;0.47;;;0.40;;
15285;SDS011;7744;52.172;10.668;2023-04-24T13:41:55;0.65;;;0.60;;
15285;SDS011;7744;52.172;10.668;2023-04-24T13:44:22;0.40;;;0.40;;
15285;SDS011;7744;52.172;10.668;2023-04-24T13:46:49;1.50;;;0.40;;
15285;SDS011;7744;52.172;10.668;2023-04-24T13:49:16;0.40;;;0.40;;
15285;SDS011;7744;52.172;10.668;2023-04-24T13:51:43;1.58;;;0.40;;
15285;SDS011;7744;52.172;10.668;2023-04-24T13:54:09;0.50;;;0.50;;
15285;SDS011;7744;52.172;10.668;2023-04-24T13:56:35;0.80;;;0.80;;
15285;SDS011;7744;52.172;10.668;2023-04-24T13:59:05;1.30;;;1.20;;
15285;SDS011;7744;52.172;10.668;2023-04-24T14:01:31;1.42;;;1.30;;
15285;SDS011;7744;52.172;10.668;2023-04-24T14:03:57;1.45;;;1.23;;
15285;SDS011;7744;52.172;10.668;2023-04-24T14:06:29;2.15;;;1.00;;
15285;SDS011;7744;52.172;10.668;2023-04-24T14:08:56;0.95;;;0.90;;
15285;SDS011;7744;52.172;10.668;2023-04-24T14:11:21;0.70;;;0.70;;
15285;SDS011;7744;52.172;10.668;2023-04-24T14:13:47;1.42;;;0.65;;
15285;SDS011;7744;52.172;10.668;2023-04-24T14:16:16;1.05;;;0.70;;
15285;SDS011;7744;52.172;10.668;2023-04-24T14:18:41;1.58;;;0.40;;
15285;SDS011;7744;52.172;10.668;2023-04-24T14:21:07;0.40;;;0.40;;
15285;SDS011;7744;52.172;10.668;2023-04-24T14:23:32;0.32;;;0.32;;
15285;SDS011;7744;52.172;10.668;2023-04-24T14:25:58;0.57;;;0.40;;
15285;SDS011;7744;52.172;10.668;2023-04-24T14:28:25;1.60;;;0.50;;
15285;SDS011;7744;52.172;10.668;2023-04-24T14:30:52;0.73;;;0.43;;
15285;SDS011;7744;52.172;10.668;2023-04-24T14:33:20;1.50;;;0.40;;
15285;SDS011;7744;52.172;10.668;2023-04-24T14:35:52;0.63;;;0.50;;
15285;SDS011;7744;52.172;10.668;2023-04-24T14:39:30;1.70;;;0.50;;
15285;SDS011;7744;52.172;10.668;2023-04-24T14:42:23;1.30;;;0.40;;
15285;SDS011;7744;52.172;10.668;2023-04-24T14:44:49;0.70;;;0.30;;
15285;SDS011;7744;52.172;10.668;2023-04-24T14:50:43;0.30;;;0.30;;
15285;SDS011;7744;52.172;10.668;2023-04-24T14:53:41;1.33;;;0.30;;
15285;SDS011;7744;52.172;10.668;2023-04-24T15:10:07;0.90;;;0.40;;
15285;SDS011;7744;52.172;10.668;2023-04-24T15:12:33;0.90;;;0.63;;
15285;SDS011;7744;52.172;10.668;2023-04-24T15:14:59;0.53;;;0.30;;
15285;SDS011;7744;52.172;10.668;2023-04-24T15:20:18;1.77;;;0.70;;
15285;SDS011;7744;52.172;10.668;2023-04-24T15:29:24;0.47;;;0.47;;
15285;SDS011;7744;52.172;10.668;2023-04-24T15:31:50;1.07;;;0.60;;
15285;SDS011;7744;52.172;10.668;2023-04-24T15:34:15;0.80;;;0.60;;
15285;SDS011;7744;52.172;10.668;2023-04-24T15:36:41;0.50;;;0.50;;
15285;SDS011;7744;52.172;10.668;2023-04-24T15:39:11;0.70;;;0.60;;
15285;SDS011;7744;52.172;10.668;2023-04-24T15:41:40;0.97;;;0.60;;
15285;SDS011;7744;52.172;10.668;2023-04-24T15:44:06;1.23;;;1.13;;
15285;SDS011;7744;52.172;10.668;2023-04-24T15:46:31;1.80;;;0.90;;
15285;SDS011;7744;52.172;10.668;2023-04-24T15:49:00;1.07;;;1.07;;
15285;SDS011;7744;52.172;10.668;2023-04-24T15:51:25;1.33;;;1.10;;
15285;SDS011;7744;52.172;10.668;2023-04-24T15:53:51;1.50;;;1.40;;
15285;SDS011;7744;52.172;10.668;2023-04-24T15:56:17;1.40;;;1.00;;
15285;SDS011;7744;52.172;10.668;2023-04-24T15:58:43;1.37;;;1.27;;
15285;SDS011;7744;52.172;10.668;2023-04-24T16:01:10;1.83;;;1.20;;
15285;SDS011;7744;52.172;10.668;2023-04-24T16:03:36;1.43;;;1.20;;
15285;SDS011;7744;52.172;10.668;2023-04-24T16:06:02;2.93;;;2.00;;
15285;SDS011;7744;52.172;10.668;2023-04-24T16:08:30;1.63;;;1.53;;
15285;SDS011;7744;52.172;10.668;2023-04-24T16:10:57;3.20;;;1.70;;
15285;SDS011;7744;52.172;10.668;2023-04-24T16:13:23;2.20;;;2.00;;
15285;SDS011;7744;52.172;10.668;2023-04-24T16:15:50;2.43;;;1.80;;
15285;SDS011;7744;52.172;10.668;2023-04-24T16:18:16;1.77;;;1.67;;
15285;SDS011;7744;52.172;10.668;2023-04-24T16:20:42;2.40;;;1.70;;
15285;SDS011;7744;52.172;10.668;2023-04-24T16:23:08;3.00;;;1.80;;
15285;SDS011;7744;52.172;10.668;2023-04-24T16:25:34;2.10;;;1.97;;
15285;SDS011;7744;52.172;10.668;2023-04-24T16:28:00;2.30;;;2.10;;
15285;SDS011;7744;52.172;10.668;2023-04-24T16:30:25;3.17;;;2.10;;
15285;SDS011;7744;52.172;10.668;2023-04-24T16:32:51;2.73;;;2.20;;
15285;SDS011;7744;52.172;10.668;2023-04-24T16:35:25;3.40;;;2.50;;
15285;SDS011;7744;52.172;10.668;2023-04-24T16:37:50;5.87;;;2.73;;
15285;SDS011;7744;52.172;10.668;2023-04-24T16:40:17;5.07;;;2.60;;
15285;SDS011;7744;52.172;10.668;2023-04-24T16:42:43;4.37;;;2.60;;
15285;SDS011;7744;52.172;10.668;2023-04-24T16:45:08;4.27;;;2.90;;
15285;SDS011;7744;52.172;10.668;2023-04-24T16:47:35;4.63;;;2.87;;
15285;SDS011;7744;52.172;10.668;2023-04-24T16:50:01;5.27;;;3.10;;
15285;SDS011;7744;52.172;10.668;2023-04-24T16:52:26;4.93;;;3.20;;
15285;SDS011;7744;52.172;10.668;2023-04-24T16:54:52;5.77;;;3.50;;
15285;SDS011;7744;52.172;10.668;2023-04-24T16:57:17;4.33;;;3.23;;
15285;SDS011;7744;52.172;10.668;2023-04-24T16:59:43;4.87;;;3.00;;
15285;SDS011;7744;52.172;10.668;2023-04-24T17:02:09;4.33;;;3.40;;
15285;SDS011;7744;52.172;10.668;2023-04-24T17:04:36;5.57;;;3.20;;
15285;SDS011;7744;52.172;10.668;2023-04-24T17:07:03;3.83;;;2.83;;
15285;SDS011;7744;52.172;10.668;2023-04-24T17:09:35;5.33;;;3.20;;
15285;SDS011;7744;52.172;10.668;2023-04-24T17:12:01;3.90;;;3.23;;
15285;SDS011;7744;52.172;10.668;2023-04-24T17:14:26;5.97;;;4.10;;
15285;SDS011;7744;52.172;10.668;2023-04-24T17:16:52;3.90;;;3.47;;
15285;SDS011;7744;52.172;10.668;2023-04-24T17:19:18;4.90;;;3.33;;
15285;SDS011;7744;52.172;10.668;2023-04-24T17:21:43;4.97;;;3.40;;
15285;SDS011;7744;52.172;10.668;2023-04-24T17:24:11;5.10;;;3.73;;
15285;SDS011;7744;52.172;10.668;2023-04-24T17:26:37;3.87;;;3.43;;
15285;SDS011;7744;52.172;10.668;2023-04-24T17:29:02;3.83;;;3.43;;
15285;SDS011;7744;52.172;10.668;2023-04-24T17:31:28;5.00;;;3.30;;
15285;SDS011;7744;52.172;10.668;2023-04-24T17:33:54;5.00;;;3.47;;
15285;SDS011;7744;52.172;10.668;2023-04-24T17:36:19;5.53;;;3.50;;
15285;SDS011;7744;52.172;10.668;2023-04-24T17:38:45;5.20;;;3.80;;
15285;SDS011;7744;52.172;10.668;2023-04-24T17:41:11;4.90;;;3.40;;
15285;SDS011;7744;52.172;10.668;2023-04-24T17:43:43;4.87;;;3.57;;
15285;SDS011;7744;52.172;10.668;2023-04-24T17:46:30;5.20;;;3.70;;
15285;SDS011;7744;52.172;10.668;2023-04-24T17:48:56;5.60;;;3.63;;
15285;SDS011;7744;52.172;10.668;2023-04-24T17:51:22;4.93;;;3.60;;
15285;SDS011;7744;52.172;10.668;2023-04-24T17:53:48;4.93;;;3.70;;
15285;SDS011;7744;52.172;10.668;2023-04-24T17:56:14;6.67;;;4.00;;
15285;SDS011;7744;52.172;10.668;2023-04-24T17:58:40;6.17;;;3.80;;
15285;SDS011;7744;52.172;10.668;2023-04-24T18:01:05;5.33;;;3.87;;
15285;SDS011;7744;52.172;10.668;2023-04-24T18:03:31;4.63;;;4.07;;
15285;SDS011;7744;52.172;10.668;2023-04-24T18:08:27;5.60;;;4.10;;
15285;SDS011;7744;52.172;10.668;2023-04-24T18:11:12;7.57;;;4.97;;
15285;SDS011;7744;52.172;10.668;2023-04-24T18:13:38;7.33;;;4.40;;
15285;SDS011;7744;52.172;10.668;2023-04-24T18:16:12;5.03;;;4.43;;
15285;SDS011;7744;52.172;10.668;2023-04-24T18:18:37;7.97;;;4.47;;
15285;SDS011;7744;52.172;10.668;2023-04-24T18:21:03;5.10;;;4.60;;